sensor_id;sensor_type;location;lat;lon;timestamp;pressure;altitude;pressure_sealevel;temperature;humidity
11499;BME280;5806;48.748;9.278;2023-06-01T00:00:19;101427.47;;;17.35;57.52
11499;BME280;5806;48.748;9.278;2023-06-01T00:02:47;101425.33;;;17.42;57.44
11499;BME280;5806;48.748;9.278;2023-06-01T00:05:16;101426.45;;;17.46;56.75
11499;BME280;5806;48.748;9.278;2023-06-01T00:07:43;101433.37;;;17.51;56.00
11499;BME280;5806;48.748;9.278;2023-06-01T00:10:11;101425.35;;;17.55;56.18
11499;BME280;5806;48.748;9.278;2023-06-01T00:12:39;101427.84;;;17.54;56.46
11499;BME280;5806;48.748;9.278;2023-06-01T00:15:07;101426.25;;;17.68;55.51
11499;BME280;5806;48.748;9.278;2023-06-01T00:17:35;101425.94;;;17.64;55.91
11499;BME280;5806;48.748;9.278;2023-06-01T00:20:03;101425.94;;;17.64;55.91
11499;BME280;5806;48.748;9.278;2023-06-01T00:22:32;101431.75;;;17.65;55.90
11499;BME280;5806;48.748;9.278;2023-06-01T00:25:01;101436.16;;;17.59;56.07
11499;BME280;5806;48.748;9.278;2023-06-01T00:27:28;101433.98;;;17.71;55.82
11499;BME280;5806;48.748;9.278;2023-06-01T00:29:56;101437.86;;;17.65;56.04
11499;BME280;5806;48.748;9.278;2023-06-01T00:32:23;101442.81;;;17.63;57.17
11499;BME280;5806;48.748;9.278;2023-06-01T00:34:51;101446.62;;;17.47;57.01
11499;BME280;5806;48.748;9.278;2023-06-01T00:37:18;101446.95;;;17.58;57.12
11499;BME280;5806;48.748;9.278;2023-06-01T00:39:46;101448.46;;;17.31;58.00
11499;BME280;5806;48.748;9.278;2023-06-01T00:42:13;101447.63;;;17.33;57.33
11499;BME280;5806;48.748;9.278;2023-06-01T00:44:41;101454.91;;;17.42;57.75
11499;BME280;5806;48.748;9.278;2023-06-01T00:47:09;101453.66;;;17.23;58.37
11499;BME280;5806;48.748;9.278;2023-06-01T00:49:36;101449.81;;;17.21;58.47
11499;BME280;5806;48.748;9.278;2023-06-01T00:52:04;101446.20;;;17.23;58.41
11499;BME280;5806;48.748;9.278;2023-06-01T00:54:32;101442.79;;;17.04;58.61
11499;BME280;5806;48.748;9.278;2023-06-01T00:56:59;101443.30;;;16.96;59.22
11499;BME280;5806;48.748;9.278;2023-06-01T00:59:28;101447.80;;;16.68;60.50
11499;BME280;5806;48.748;9.278;2023-06-01T01:01:55;101442.17;;;16.94;59.57
11499;BME280;5806;48.748;9.278;2023-06-01T01:04:23;101446.20;;;16.79;59.99
11499;BME280;5806;48.748;9.278;2023-06-01T01:10:11;101449.23;;;16.78;60.37
11499;BME280;5806;48.748;9.278;2023-06-01T01:12:47;101448.13;;;16.79;60.18
11499;BME280;5806;48.748;9.278;2023-06-01T01:15:24;101452.50;;;16.72;60.35
11499;BME280;5806;48.748;9.278;2023-06-01T01:18:02;101450.95;;;16.84;59.75
11499;BME280;5806;48.748;9.278;2023-06-01T01:20:34;101447.45;;;16.62;61.05
11499;BME280;5806;48.748;9.278;2023-06-01T01:23:10;101443.63;;;16.65;60.65
11499;BME280;5806;48.748;9.278;2023-06-01T01:28:42;101448.39;;;16.41;62.02
11499;BME280;5806;48.748;9.278;2023-06-01T01:31:12;101448.56;;;16.32;61.88
11499;BME280;5806;48.748;9.278;2023-06-01T01:33:41;101443.55;;;16.29;62.17
11499;BME280;5806;48.748;9.278;2023-06-01T01:36:10;101453.25;;;16.34;61.85
11499;BME280;5806;48.748;9.278;2023-06-01T01:38:38;101453.65;;;16.16;62.80
11499;BME280;5806;48.748;9.278;2023-06-01T01:41:06;101452.09;;;16.27;62.56
11499;BME280;5806;48.748;9.278;2023-06-01T01:43:37;101460.83;;;16.17;62.70
11499;BME280;5806;48.748;9.278;2023-06-01T01:46:17;101455.29;;;16.14;62.55
11499;BME280;5806;48.748;9.278;2023-06-01T01:51:44;101463.83;;;16.13;62.09
11499;BME280;5806;48.748;9.278;2023-06-01T01:54:10;101463.33;;;15.92;63.29
11499;BME280;5806;48.748;9.278;2023-06-01T01:56:39;101462.89;;;16.02;62.76
11499;BME280;5806;48.748;9.278;2023-06-01T01:59:08;101464.02;;;16.04;62.89
11499;BME280;5806;48.748;9.278;2023-06-01T02:01:37;101467.09;;;16.10;63.00
11499;BME280;5806;48.748;9.278;2023-06-01T02:04:07;101466.73;;;15.99;63.10
11499;BME280;5806;48.748;9.278;2023-06-01T02:06:34;101464.48;;;15.96;63.46
11499;BME280;5806;48.748;9.278;2023-06-01T02:09:03;101463.61;;;15.93;63.37
11499;BME280;5806;48.748;9.278;2023-06-01T02:11:34;101459.89;;;15.80;64.02
11499;BME280;5806;48.748;9.278;2023-06-01T02:14:03;101459.34;;;15.56;65.27
11499;BME280;5806;48.748;9.278;2023-06-01T02:16:30;101458.77;;;15.78;64.02
11499;BME280;5806;48.748;9.278;2023-06-01T02:18:58;101461.05;;;15.62;64.09
11499;BME280;5806;48.748;9.278;2023-06-01T02:21:26;101460.87;;;15.71;63.97
11499;BME280;5806;48.748;9.278;2023-06-01T02:23:53;101459.17;;;15.65;64.24
11499;BME280;5806;48.748;9.278;2023-06-01T02:26:21;101458.09;;;15.69;64.30
11499;BME280;5806;48.748;9.278;2023-06-01T02:28:50;101463.81;;;15.62;64.46
11499;BME280;5806;48.748;9.278;2023-06-01T02:31:17;101453.99;;;15.50;64.99
11499;BME280;5806;48.748;9.278;2023-06-01T02:33:45;101449.44;;;15.36;65.58
11499;BME280;5806;48.748;9.278;2023-06-01T02:36:12;101443.70;;;15.40;65.74
11499;BME280;5806;48.748;9.278;2023-06-01T02:38:42;101445.72;;;15.50;65.12
11499;BME280;5806;48.748;9.278;2023-06-01T02:41:09;101443.11;;;15.38;65.56
11499;BME280;5806;48.748;9.278;2023-06-01T02:43:37;101442.01;;;15.39;65.38
11499;BME280;5806;48.748;9.278;2023-06-01T02:46:04;101439.83;;;15.22;66.22
11499;BME280;5806;48.748;9.278;2023-06-01T02:48:32;101441.65;;;15.14;66.59
11499;BME280;5806;48.748;9.278;2023-06-01T02:51:02;101438.23;;;15.26;65.99
11499;BME280;5806;48.748;9.278;2023-06-01T02:53:30;101445.30;;;15.36;65.60
11499;BME280;5806;48.748;9.278;2023-06-01T02:55:57;101447.09;;;15.09;65.95
11499;BME280;5806;48.748;9.278;2023-06-01T02:58:25;101445.59;;;15.21;65.93
11499;BME280;5806;48.748;9.278;2023-06-01T03:00:54;101442.95;;;15.28;65.89
11499;BME280;5806;48.748;9.278;2023-06-01T03:03:27;101439.05;;;15.24;65.89
11499;BME280;5806;48.748;9.278;2023-06-01T03:05:55;101455.11;;;15.11;66.47
11499;BME280;5806;48.748;9.278;2023-06-01T03:08:23;101451.16;;;15.04;66.65
11499;BME280;5806;48.748;9.278;2023-06-01T03:10:51;101452.52;;;15.02;66.69
11499;BME280;5806;48.748;9.278;2023-06-01T03:13:18;101447.72;;;14.95;66.71
11499;BME280;5806;48.748;9.278;2023-06-01T03:15:46;101457.57;;;14.91;67.32
11499;BME280;5806;48.748;9.278;2023-06-01T03:18:14;101459.08;;;15.01;66.81
11499;BME280;5806;48.748;9.278;2023-06-01T03:20:43;101464.81;;;14.97;66.82
11499;BME280;5806;48.748;9.278;2023-06-01T03:23:12;101458.95;;;14.91;67.21
11499;BME280;5806;48.748;9.278;2023-06-01T03:25:39;101452.70;;;14.78;67.50
11499;BME280;5806;48.748;9.278;2023-06-01T03:28:08;101450.70;;;14.74;67.46
11499;BME280;5806;48.748;9.278;2023-06-01T03:30:35;101453.59;;;14.82;67.44
11499;BME280;5806;48.748;9.278;2023-06-01T03:33:03;101452.34;;;14.92;67.00
11499;BME280;5806;48.748;9.278;2023-06-01T03:35:30;101458.31;;;14.86;67.13
11499;BME280;5806;48.748;9.278;2023-06-01T03:37:58;101456.55;;;14.78;67.11
11499;BME280;5806;48.748;9.278;2023-06-01T03:40:25;101452.77;;;14.83;66.93
11499;BME280;5806;48.748;9.278;2023-06-01T03:42:53;101456.77;;;14.73;67.00
11499;BME280;5806;48.748;9.278;2023-06-01T03:45:21;101461.53;;;14.61;67.69
11499;BME280;5806;48.748;9.278;2023-06-01T03:47:48;101458.23;;;14.45;68.71
11499;BME280;5806;48.748;9.278;2023-06-01T03:50:16;101466.02;;;14.67;67.58
11499;BME280;5806;48.748;9.278;2023-06-01T03:52:44;101467.85;;;14.62;68.21
11499;BME280;5806;48.748;9.278;2023-06-01T03:55:11;101460.76;;;14.66;67.64
11499;BME280;5806;48.748;9.278;2023-06-01T03:57:39;101470.11;;;14.65;67.73
11499;BME280;5806;48.748;9.278;2023-06-01T04:00:08;101469.83;;;14.64;67.82
11499;BME280;5806;48.748;9.278;2023-06-01T04:02:57;101473.61;;;14.60;67.84
11499;BME280;5806;48.748;9.278;2023-06-01T04:05:23;101467.73;;;14.54;68.07
11499;BME280;5806;48.748;9.278;2023-06-01T04:07:54;101465.77;;;14.69;67.21
11499;BME280;5806;48.748;9.278;2023-06-01T04:10:22;101473.19;;;14.68;67.59
11499;BME280;5806;48.748;9.278;2023-06-01T04:12:50;101472.02;;;14.64;67.86
11499;BME280;5806;48.748;9.278;2023-06-01T04:15:19;101480.38;;;14.53;68.09
11499;BME280;5806;48.748;9.278;2023-06-01T04:17:47;101479.31;;;14.56;68.42
11499;BME280;5806;48.748;9.278;2023-06-01T04:20:16;101478.77;;;14.71;67.67
11499;BME280;5806;48.748;9.278;2023-06-01T04:22:45;101477.16;;;14.58;68.19
11499;BME280;5806;48.748;9.278;2023-06-01T04:25:14;101474.48;;;14.63;68.03
11499;BME280;5806;48.748;9.278;2023-06-01T04:27:46;101432.59;;;14.28;68.40
11499;BME280;5806;48.748;9.278;2023-06-01T04:30:15;101475.88;;;14.47;68.76
11499;BME280;5806;48.748;9.278;2023-06-01T04:32:46;101477.33;;;14.52;69.33
11499;BME280;5806;48.748;9.278;2023-06-01T04:35:14;101478.79;;;14.57;68.80
11499;BME280;5806;48.748;9.278;2023-06-01T04:37:42;101481.66;;;14.64;68.58
11499;BME280;5806;48.748;9.278;2023-06-01T04:40:13;101487.16;;;14.64;68.59
11499;BME280;5806;48.748;9.278;2023-06-01T04:42:43;101491.25;;;14.62;69.14
11499;BME280;5806;48.748;9.278;2023-06-01T04:45:18;101494.01;;;14.62;68.96
11499;BME280;5806;48.748;9.278;2023-06-01T04:47:45;101487.58;;;14.56;69.12
11499;BME280;5806;48.748;9.278;2023-06-01T04:50:15;101490.61;;;14.55;69.78
11499;BME280;5806;48.748;9.278;2023-06-01T04:52:43;101493.30;;;14.69;69.22
11499;BME280;5806;48.748;9.278;2023-06-01T04:55:12;101499.41;;;14.71;68.81
11499;BME280;5806;48.748;9.278;2023-06-01T04:57:40;101494.90;;;14.82;68.28
11499;BME280;5806;48.748;9.278;2023-06-01T05:00:12;101488.90;;;14.87;68.30
11499;BME280;5806;48.748;9.278;2023-06-01T05:02:40;101489.92;;;14.98;67.61
11499;BME280;5806;48.748;9.278;2023-06-01T05:05:10;101485.08;;;14.88;67.87
11499;BME280;5806;48.748;9.278;2023-06-01T05:07:38;101490.59;;;14.88;68.68
11499;BME280;5806;48.748;9.278;2023-06-01T05:10:07;101486.60;;;14.98;68.22
11499;BME280;5806;48.748;9.278;2023-06-01T05:12:35;101489.85;;;14.95;67.77
11499;BME280;5806;48.748;9.278;2023-06-01T05:15:04;101492.45;;;15.02;67.96
11499;BME280;5806;48.748;9.278;2023-06-01T05:17:32;101483.31;;;14.99;67.79
11499;BME280;5806;48.748;9.278;2023-06-01T05:20:00;101484.61;;;15.13;67.49
11499;BME280;5806;48.748;9.278;2023-06-01T05:22:29;101481.98;;;15.20;66.71
11499;BME280;5806;48.748;9.278;2023-06-01T05:24:56;101486.93;;;15.21;67.27
11499;BME280;5806;48.748;9.278;2023-06-01T05:27:24;101485.96;;;15.29;66.70
11499;BME280;5806;48.748;9.278;2023-06-01T05:29:51;101489.03;;;15.33;67.24
11499;BME280;5806;48.748;9.278;2023-06-01T05:32:18;101489.34;;;15.34;67.94
11499;BME280;5806;48.748;9.278;2023-06-01T05:34:46;101485.30;;;15.39;66.89
11499;BME280;5806;48.748;9.278;2023-06-01T05:37:13;101483.54;;;15.52;66.13
11499;BME280;5806;48.748;9.278;2023-06-01T05:39:41;101483.17;;;15.27;66.41
11499;BME280;5806;48.748;9.278;2023-06-01T05:42:08;101490.68;;;15.50;66.20
11499;BME280;5806;48.748;9.278;2023-06-01T05:44:36;101493.60;;;15.41;66.86
11499;BME280;5806;48.748;9.278;2023-06-01T05:47:03;101493.87;;;15.61;65.61
11499;BME280;5806;48.748;9.278;2023-06-01T05:49:31;101493.05;;;15.63;65.68
11499;BME280;5806;48.748;9.278;2023-06-01T05:51:59;101499.89;;;15.58;65.41
11499;BME280;5806;48.748;9.278;2023-06-01T05:54:27;101494.74;;;15.64;66.01
11499;BME280;5806;48.748;9.278;2023-06-01T05:56:54;101495.55;;;15.65;65.66
11499;BME280;5806;48.748;9.278;2023-06-01T05:59:21;101490.86;;;15.63;65.90
11499;BME280;5806;48.748;9.278;2023-06-01T06:01:49;101501.23;;;15.56;66.10
11499;BME280;5806;48.748;9.278;2023-06-01T06:04:17;101495.13;;;15.75;65.37
11499;BME280;5806;48.748;9.278;2023-06-01T06:06:44;101499.66;;;15.84;65.58
11499;BME280;5806;48.748;9.278;2023-06-01T06:09:12;101498.08;;;15.90;65.37
11499;BME280;5806;48.748;9.278;2023-06-01T06:11:40;101494.02;;;15.98;64.81
11499;BME280;5806;48.748;9.278;2023-06-01T06:14:08;101501.41;;;15.68;65.51
11499;BME280;5806;48.748;9.278;2023-06-01T06:16:37;101503.03;;;15.88;64.89
11499;BME280;5806;48.748;9.278;2023-06-01T06:19:06;101498.33;;;15.89;65.08
11499;BME280;5806;48.748;9.278;2023-06-01T06:21:33;101492.81;;;15.89;65.50
11499;BME280;5806;48.748;9.278;2023-06-01T06:24:02;101497.77;;;16.11;65.73
11499;BME280;5806;48.748;9.278;2023-06-01T06:26:30;101491.10;;;16.07;64.76
11499;BME280;5806;48.748;9.278;2023-06-01T06:28:57;101498.37;;;16.18;64.53
11499;BME280;5806;48.748;9.278;2023-06-01T06:31:25;101497.30;;;16.19;64.41
11499;BME280;5806;48.748;9.278;2023-06-01T06:33:52;101501.67;;;16.15;64.86
11499;BME280;5806;48.748;9.278;2023-06-01T06:36:20;101500.69;;;16.28;64.50
11499;BME280;5806;48.748;9.278;2023-06-01T06:38:47;101497.73;;;16.35;64.37
11499;BME280;5806;48.748;9.278;2023-06-01T06:41:15;101500.06;;;16.43;63.89
11499;BME280;5806;48.748;9.278;2023-06-01T06:43:42;101499.75;;;16.42;64.18
11499;BME280;5806;48.748;9.278;2023-06-01T06:46:09;101496.45;;;16.42;63.19
11499;BME280;5806;48.748;9.278;2023-06-01T06:48:37;101495.97;;;16.50;63.27
11499;BME280;5806;48.748;9.278;2023-06-01T06:51:04;101501.41;;;16.69;63.16
11499;BME280;5806;48.748;9.278;2023-06-01T06:53:32;101496.44;;;16.74;62.93
11499;BME280;5806;48.748;9.278;2023-06-01T06:55:59;101515.42;;;16.97;62.66
11499;BME280;5806;48.748;9.278;2023-06-01T06:58:27;101510.50;;;17.01;62.10
11499;BME280;5806;48.748;9.278;2023-06-01T07:00:55;101510.45;;;16.99;62.20
11499;BME280;5806;48.748;9.278;2023-06-01T07:03:22;101509.02;;;17.28;61.82
11499;BME280;5806;48.748;9.278;2023-06-01T07:05:50;101504.78;;;17.18;61.39
11499;BME280;5806;48.748;9.278;2023-06-01T07:08:17;101513.45;;;16.95;62.29
11499;BME280;5806;48.748;9.278;2023-06-01T07:10:46;101512.81;;;17.19;62.01
11499;BME280;5806;48.748;9.278;2023-06-01T07:13:13;101513.91;;;17.16;61.70
11499;BME280;5806;48.748;9.278;2023-06-01T07:15:40;101515.82;;;16.47;63.44
11499;BME280;5806;48.748;9.278;2023-06-01T07:18:08;101516.44;;;16.86;62.56
11499;BME280;5806;48.748;9.278;2023-06-01T07:20:35;101513.39;;;16.51;62.93
11499;BME280;5806;48.748;9.278;2023-06-01T07:23:03;101512.61;;;16.58;63.14
11499;BME280;5806;48.748;9.278;2023-06-01T07:25:30;101517.61;;;16.61;62.91
11499;BME280;5806;48.748;9.278;2023-06-01T07:27:58;101516.11;;;16.77;62.78
11499;BME280;5806;48.748;9.278;2023-06-01T07:30:26;101517.05;;;16.93;62.83
11499;BME280;5806;48.748;9.278;2023-06-01T07:32:53;101511.77;;;16.89;62.52
11499;BME280;5806;48.748;9.278;2023-06-01T07:35:21;101510.16;;;16.95;62.49
11499;BME280;5806;48.748;9.278;2023-06-01T07:37:49;101508.25;;;16.98;62.47
11499;BME280;5806;48.748;9.278;2023-06-01T07:40:16;101507.42;;;17.00;62.29
11499;BME280;5806;48.748;9.278;2023-06-01T07:42:44;101505.70;;;16.58;62.88
11499;BME280;5806;48.748;9.278;2023-06-01T07:45:11;101509.70;;;16.72;62.96
11499;BME280;5806;48.748;9.278;2023-06-01T07:47:39;101507.23;;;16.75;62.41
11499;BME280;5806;48.748;9.278;2023-06-01T07:50:08;101507.15;;;16.63;62.82
11499;BME280;5806;48.748;9.278;2023-06-01T07:52:36;101506.82;;;16.59;63.21
11499;BME280;5806;48.748;9.278;2023-06-01T07:55:05;101508.33;;;16.72;63.12
11499;BME280;5806;48.748;9.278;2023-06-01T07:57:32;101512.29;;;16.86;62.63
11499;BME280;5806;48.748;9.278;2023-06-01T08:00:00;101514.41;;;16.74;62.73
11499;BME280;5806;48.748;9.278;2023-06-01T08:02:27;101516.94;;;16.80;62.66
11499;BME280;5806;48.748;9.278;2023-06-01T08:04:54;101508.72;;;16.85;62.65
11499;BME280;5806;48.748;9.278;2023-06-01T08:07:23;101513.47;;;16.61;64.09
11499;BME280;5806;48.748;9.278;2023-06-01T08:09:52;101511.72;;;16.81;63.01
11499;BME280;5806;48.748;9.278;2023-06-01T08:12:19;101517.55;;;16.87;62.41
11499;BME280;5806;48.748;9.278;2023-06-01T08:14:47;101518.06;;;16.82;62.49
11499;BME280;5806;48.748;9.278;2023-06-01T08:17:15;101519.41;;;16.77;63.45
11499;BME280;5806;48.748;9.278;2023-06-01T08:19:42;101511.33;;;17.07;62.05
11499;BME280;5806;48.748;9.278;2023-06-01T08:22:10;101505.61;;;17.16;61.85
11499;BME280;5806;48.748;9.278;2023-06-01T08:24:38;101506.36;;;17.04;61.33
11499;BME280;5806;48.748;9.278;2023-06-01T08:27:22;101504.81;;;17.23;61.48
11499;BME280;5806;48.748;9.278;2023-06-01T08:29:50;101502.25;;;17.11;61.31
11499;BME280;5806;48.748;9.278;2023-06-01T08:32:17;101496.01;;;17.31;60.96
11499;BME280;5806;48.748;9.278;2023-06-01T08:34:45;101499.58;;;17.24;61.08
11499;BME280;5806;48.748;9.278;2023-06-01T08:37:13;101499.58;;;17.21;60.90
11499;BME280;5806;48.748;9.278;2023-06-01T08:39:41;101495.88;;;17.11;61.53
11499;BME280;5806;48.748;9.278;2023-06-01T08:42:35;101489.64;;;17.25;62.42
11499;BME280;5806;48.748;9.278;2023-06-01T08:45:05;101491.17;;;17.48;60.97
11499;BME280;5806;48.748;9.278;2023-06-01T08:47:33;101487.41;;;17.25;60.67
11499;BME280;5806;48.748;9.278;2023-06-01T08:50:02;101491.32;;;17.31;61.45
11499;BME280;5806;48.748;9.278;2023-06-01T08:52:30;101497.98;;;17.35;61.33
11499;BME280;5806;48.748;9.278;2023-06-01T08:54:59;101496.34;;;17.39;60.35
11499;BME280;5806;48.748;9.278;2023-06-01T08:57:31;101496.06;;;17.36;60.37
11499;BME280;5806;48.748;9.278;2023-06-01T08:59:59;101497.02;;;17.56;59.51
11499;BME280;5806;48.748;9.278;2023-06-01T09:02:27;101499.48;;;17.48;59.82
11499;BME280;5806;48.748;9.278;2023-06-01T09:04:54;101498.14;;;17.63;59.86
11499;BME280;5806;48.748;9.278;2023-06-01T09:07:22;101495.91;;;17.57;60.05
11499;BME280;5806;48.748;9.278;2023-06-01T09:09:50;101501.52;;;17.75;59.04
11499;BME280;5806;48.748;9.278;2023-06-01T09:14:50;101494.64;;;17.80;58.69
11499;BME280;5806;48.748;9.278;2023-06-01T09:17:23;101490.49;;;17.80;59.13
11499;BME280;5806;48.748;9.278;2023-06-01T09:19:57;101492.95;;;17.76;58.55
11499;BME280;5806;48.748;9.278;2023-06-01T09:22:22;101480.50;;;17.79;57.32
11499;BME280;5806;48.748;9.278;2023-06-01T09:25:00;101484.17;;;17.92;57.07
11499;BME280;5806;48.748;9.278;2023-06-01T09:27:27;101476.15;;;18.08;55.78
11499;BME280;5806;48.748;9.278;2023-06-01T09:29:55;101476.77;;;18.27;55.76
11499;BME280;5806;48.748;9.278;2023-06-01T09:32:23;101472.57;;;18.15;58.03
11499;BME280;5806;48.748;9.278;2023-06-01T09:34:51;101466.72;;;18.01;56.05
11499;BME280;5806;48.748;9.278;2023-06-01T09:37:20;101469.80;;;18.10;54.97
11499;BME280;5806;48.748;9.278;2023-06-01T09:39:48;101467.30;;;18.08;55.42
11499;BME280;5806;48.748;9.278;2023-06-01T09:42:15;101468.10;;;17.94;54.08
11499;BME280;5806;48.748;9.278;2023-06-01T09:44:44;101465.64;;;18.05;54.89
11499;BME280;5806;48.748;9.278;2023-06-01T09:47:12;101468.11;;;17.96;55.27
11499;BME280;5806;48.748;9.278;2023-06-01T09:49:41;101463.09;;;17.88;54.54
11499;BME280;5806;48.748;9.278;2023-06-01T09:52:14;101456.17;;;17.83;53.91
11499;BME280;5806;48.748;9.278;2023-06-01T09:54:50;101457.34;;;18.15;53.11
11499;BME280;5806;48.748;9.278;2023-06-01T09:57:26;101452.72;;;18.53;55.07
11499;BME280;5806;48.748;9.278;2023-06-01T09:59:50;101450.48;;;18.35;53.55
11499;BME280;5806;48.748;9.278;2023-06-01T10:02:21;101442.46;;;18.43;53.97
11499;BME280;5806;48.748;9.278;2023-06-01T10:04:53;101444.64;;;18.26;53.15
11499;BME280;5806;48.748;9.278;2023-06-01T10:07:23;101439.42;;;18.45;52.84
11499;BME280;5806;48.748;9.278;2023-06-01T10:09:57;101443.00;;;18.43;52.88
11499;BME280;5806;48.748;9.278;2023-06-01T10:12:21;101439.34;;;19.07;53.46
11499;BME280;5806;48.748;9.278;2023-06-01T10:14:50;101439.34;;;19.07;53.46
11499;BME280;5806;48.748;9.278;2023-06-01T10:17:19;101440.23;;;18.63;51.32
11499;BME280;5806;48.748;9.278;2023-06-01T10:19:47;101449.66;;;18.62;51.72
11499;BME280;5806;48.748;9.278;2023-06-01T10:22:16;101445.49;;;18.67;52.12
11499;BME280;5806;48.748;9.278;2023-06-01T10:24:43;101442.44;;;18.56;51.14
11499;BME280;5806;48.748;9.278;2023-06-01T10:27:33;101439.41;;;18.70;51.61
11499;BME280;5806;48.748;9.278;2023-06-01T10:29:57;101439.41;;;18.70;51.61
11499;BME280;5806;48.748;9.278;2023-06-01T10:32:46;101429.89;;;19.13;52.19
11499;BME280;5806;48.748;9.278;2023-06-01T10:35:57;101433.54;;;18.96;51.11
11499;BME280;5806;48.748;9.278;2023-06-01T10:37:41;101417.24;;;18.67;49.63
11499;BME280;5806;48.748;9.278;2023-06-01T10:40:19;101417.24;;;18.67;49.63
11499;BME280;5806;48.748;9.278;2023-06-01T10:42:48;101426.30;;;19.05;50.87
11499;BME280;5806;48.748;9.278;2023-06-01T10:48:10;101430.94;;;19.40;48.96
11499;BME280;5806;48.748;9.278;2023-06-01T10:50:40;101430.94;;;19.40;48.96
11499;BME280;5806;48.748;9.278;2023-06-01T10:53:30;101425.92;;;19.47;50.51
11499;BME280;5806;48.748;9.278;2023-06-01T10:56:26;101427.38;;;19.14;49.68
11499;BME280;5806;48.748;9.278;2023-06-01T10:59:09;101427.65;;;19.28;49.43
11499;BME280;5806;48.748;9.278;2023-06-01T11:01:39;101424.27;;;19.46;50.94
11499;BME280;5806;48.748;9.278;2023-06-01T11:04:08;101421.75;;;19.50;49.13
11499;BME280;5806;48.748;9.278;2023-06-01T11:06:40;101418.95;;;19.52;47.81
11499;BME280;5806;48.748;9.278;2023-06-01T11:09:09;101417.86;;;19.48;48.25
11499;BME280;5806;48.748;9.278;2023-06-01T11:14:25;101409.12;;;19.80;48.51
11499;BME280;5806;48.748;9.278;2023-06-01T11:16:54;101406.60;;;19.81;47.33
11499;BME280;5806;48.748;9.278;2023-06-01T11:19:23;101405.11;;;19.98;45.76
11499;BME280;5806;48.748;9.278;2023-06-01T11:21:58;101406.76;;;19.99;47.66
11499;BME280;5806;48.748;9.278;2023-06-01T11:24:36;101402.26;;;20.11;46.01
11499;BME280;5806;48.748;9.278;2023-06-01T11:27:08;101399.92;;;20.25;48.05
11499;BME280;5806;48.748;9.278;2023-06-01T11:29:37;101397.19;;;20.20;45.97
11499;BME280;5806;48.748;9.278;2023-06-01T11:32:05;101393.69;;;20.00;44.65
11499;BME280;5806;48.748;9.278;2023-06-01T11:34:39;101390.24;;;20.20;46.62
11499;BME280;5806;48.748;9.278;2023-06-01T11:37:17;101389.55;;;20.36;46.38
11499;BME280;5806;48.748;9.278;2023-06-01T11:39:44;101379.05;;;20.28;45.26
11499;BME280;5806;48.748;9.278;2023-06-01T11:42:14;101381.55;;;20.29;45.81
11499;BME280;5806;48.748;9.278;2023-06-01T11:44:58;101387.09;;;20.34;45.44
11499;BME280;5806;48.748;9.278;2023-06-01T11:47:30;101381.03;;;20.27;44.99
11499;BME280;5806;48.748;9.278;2023-06-01T11:49:58;101374.98;;;20.18;44.28
11499;BME280;5806;48.748;9.278;2023-06-01T11:52:26;101384.55;;;20.38;45.26
11499;BME280;5806;48.748;9.278;2023-06-01T11:54:53;101379.15;;;20.51;45.31
11499;BME280;5806;48.748;9.278;2023-06-01T11:57:21;101361.53;;;20.32;44.11
11499;BME280;5806;48.748;9.278;2023-06-01T11:59:49;101370.64;;;20.66;44.66
11499;BME280;5806;48.748;9.278;2023-06-01T12:02:25;101374.87;;;20.61;44.40
11499;BME280;5806;48.748;9.278;2023-06-01T12:07:26;101378.88;;;20.48;46.57
11499;BME280;5806;48.748;9.278;2023-06-01T12:09:54;101373.30;;;20.53;44.80
11499;BME280;5806;48.748;9.278;2023-06-01T12:12:23;101368.06;;;20.49;43.59
11499;BME280;5806;48.748;9.278;2023-06-01T12:14:51;101369.57;;;20.65;44.41
11499;BME280;5806;48.748;9.278;2023-06-01T12:17:19;101366.30;;;20.58;44.53
11499;BME280;5806;48.748;9.278;2023-06-01T12:19:52;101368.91;;;20.75;43.96
11499;BME280;5806;48.748;9.278;2023-06-01T12:22:16;101368.41;;;20.68;44.64
11499;BME280;5806;48.748;9.278;2023-06-01T12:24:44;101359.23;;;20.68;45.12
11499;BME280;5806;48.748;9.278;2023-06-01T12:27:17;101360.44;;;20.85;44.35
11499;BME280;5806;48.748;9.278;2023-06-01T12:29:47;101359.14;;;20.78;45.52
11499;BME280;5806;48.748;9.278;2023-06-01T12:32:16;101362.54;;;20.98;45.04
11499;BME280;5806;48.748;9.278;2023-06-01T12:35:01;101356.33;;;21.06;44.85
11499;BME280;5806;48.748;9.278;2023-06-01T12:37:18;101361.89;;;21.06;44.11
11499;BME280;5806;48.748;9.278;2023-06-01T12:39:53;101364.25;;;20.94;43.94
11499;BME280;5806;48.748;9.278;2023-06-01T12:42:35;101357.66;;;20.85;44.24
11499;BME280;5806;48.748;9.278;2023-06-01T12:45:04;101357.98;;;20.81;44.70
11499;BME280;5806;48.748;9.278;2023-06-01T12:47:41;101360.17;;;20.84;44.80
11499;BME280;5806;48.748;9.278;2023-06-01T12:50:06;101349.34;;;20.83;42.74
11499;BME280;5806;48.748;9.278;2023-06-01T12:52:35;101353.45;;;20.93;42.62
11499;BME280;5806;48.748;9.278;2023-06-01T12:55:03;101352.32;;;20.94;42.00
11499;BME280;5806;48.748;9.278;2023-06-01T12:57:32;101341.45;;;20.69;42.27
11499;BME280;5806;48.748;9.278;2023-06-01T13:00:00;101342.81;;;20.97;43.48
11499;BME280;5806;48.748;9.278;2023-06-01T13:02:29;101344.53;;;20.91;41.86
11499;BME280;5806;48.748;9.278;2023-06-01T13:04:56;101343.88;;;21.01;41.88
11499;BME280;5806;48.748;9.278;2023-06-01T13:07:24;101334.98;;;21.23;42.10
11499;BME280;5806;48.748;9.278;2023-06-01T13:09:52;101340.28;;;21.01;42.92
11499;BME280;5806;48.748;9.278;2023-06-01T13:12:19;101337.50;;;21.01;42.58
11499;BME280;5806;48.748;9.278;2023-06-01T13:14:47;101335.06;;;21.18;41.38
11499;BME280;5806;48.748;9.278;2023-06-01T13:17:15;101334.84;;;21.12;42.06
11499;BME280;5806;48.748;9.278;2023-06-01T13:19:42;101339.78;;;21.17;42.48
11499;BME280;5806;48.748;9.278;2023-06-01T13:22:10;101333.77;;;21.31;42.43
11499;BME280;5806;48.748;9.278;2023-06-01T13:24:38;101337.40;;;21.29;42.09
11499;BME280;5806;48.748;9.278;2023-06-01T13:27:06;101333.40;;;21.38;42.25
11499;BME280;5806;48.748;9.278;2023-06-01T13:29:33;101330.55;;;21.22;41.10